createdAt,value
2019-03-11T00:02:10.735Z,163777.64
2019-03-11T00:04:39.749Z,163801.55
2019-03-11T00:07:07.826Z,163809.50
2019-03-11T00:09:35.960Z,163802.89
2019-03-11T00:12:04.032Z,163805.53
2019-03-11T00:14:32.151Z,163778.98
2019-03-11T00:17:00.309Z,163769.62
2019-03-11T00:19:28.457Z,163764.38
2019-03-11T00:21:56.566Z,163743.09
2019-03-11T00:24:24.745Z,163751.05
2019-03-11T00:26:52.867Z,163744.44
2019-03-11T00:29:21.713Z,163735.14
2019-03-11T00:31:49.973Z,163711.23
2019-03-11T00:34:18.061Z,163719.19
2019-03-11T00:36:46.508Z,163713.87
2019-03-11T00:39:14.597Z,163725.84
2019-03-11T00:41:42.819Z,163711.23
2019-03-11T00:44:10.915Z,163740.47
2019-03-11T00:46:39.046Z,163745.73
2019-03-11T00:49:07.331Z,163751.05
2019-03-11T00:51:35.446Z,163759.06
2019-03-11T00:54:03.574Z,163777.64
2019-03-11T00:56:31.677Z,163784.25
2019-03-11T00:58:59.760Z,163756.38
2019-03-11T01:01:28.351Z,163765.66
2019-03-11T01:03:56.389Z,163757.70
2019-03-11T01:06:24.552Z,163761.69
2019-03-11T01:08:52.648Z,163772.31
2019-03-11T01:11:20.860Z,163760.34
2019-03-11T01:13:48.953Z,163781.63
2019-03-11T01:16:17.093Z,163790.91
2019-03-11T01:18:45.820Z,163790.91
2019-03-11T01:21:13.896Z,163806.88
2019-03-11T01:23:41.990Z,163809.50
2019-03-11T01:26:10.368Z,163814.81
2019-03-11T01:28:38.457Z,163809.50
2019-03-11T01:31:07.244Z,163846.69
2019-03-11T01:33:35.393Z,163849.38
2019-03-11T01:36:03.539Z,163855.98
2019-03-11T01:38:31.673Z,163870.59
2019-03-11T01:40:59.864Z,163862.64
2019-03-11T01:43:28.625Z,163846.69
2019-03-11T01:45:57.172Z,163862.64
2019-03-11T01:48:25.273Z,163862.64
2019-03-11T01:50:53.842Z,163867.97
2019-03-11T01:53:22.117Z,163861.30
2019-03-11T01:55:50.393Z,163865.33
2019-03-11T01:58:18.619Z,163852.00
2019-03-11T02:00:46.742Z,163842.72
2019-03-11T02:03:14.843Z,163869.31
2019-03-11T02:05:42.995Z,163867.97
2019-03-11T02:08:11.146Z,163879.89
2019-03-11T02:10:39.431Z,163897.20
2019-03-11T02:13:07.531Z,163867.97
2019-03-11T02:15:35.570Z,163901.17
2019-03-11T02:18:03.768Z,163899.84
2019-03-11T02:20:32.470Z,163913.16
2019-03-11T02:23:00.588Z,163910.47
2019-03-11T02:25:29.058Z,163930.42
2019-03-11T02:27:57.175Z,163931.75
2019-03-11T02:30:25.315Z,163926.44
2019-03-11T02:32:53.655Z,163945.03
2019-03-11T02:35:29.174Z,163947.67
2019-03-11T02:37:57.402Z,163950.34
2019-03-11T02:40:25.837Z,163961.00
2019-03-11T02:42:55.180Z,163958.31
2019-03-11T02:45:23.324Z,163947.67
2019-03-11T02:47:51.399Z,163945.03
2019-03-11T02:50:19.522Z,163953.00
2019-03-11T02:52:47.568Z,163971.59
2019-03-11T02:55:15.747Z,163955.67
2019-03-11T02:57:44.112Z,163953.00
2019-03-11T03:00:13.742Z,163947.67
2019-03-11T03:03:10.355Z,163949.02
2019-03-11T03:05:51.313Z,163947.67
2019-03-11T03:08:19.406Z,163942.34
2019-03-11T03:10:47.570Z,163939.72
2019-03-11T03:13:15.645Z,163943.69
2019-03-11T03:15:43.812Z,163949.02
2019-03-11T03:18:11.938Z,163945.03
2019-03-11T03:20:40.389Z,163947.67
2019-03-11T03:23:08.523Z,163946.38
2019-03-11T03:25:36.623Z,163947.67
2019-03-11T03:28:04.890Z,163947.67
2019-03-11T03:30:33.213Z,163955.67
2019-03-11T03:33:01.349Z,163947.67
2019-03-11T03:35:29.507Z,163972.94
2019-03-11T03:37:57.725Z,163974.28
2019-03-11T03:40:25.925Z,163972.94
2019-03-11T03:42:54.351Z,163976.91
2019-03-11T03:45:38.073Z,163962.30
2019-03-11T03:48:06.569Z,163963.63
2019-03-11T03:50:37.256Z,163968.95
2019-03-11T03:53:06.201Z,163953.00
2019-03-11T03:55:34.322Z,163943.69
2019-03-11T03:58:02.503Z,163954.33
2019-03-11T04:00:30.711Z,163963.63
2019-03-11T04:02:59.166Z,163963.63
2019-03-11T04:05:27.686Z,163958.31
2019-03-11T04:07:56.816Z,163956.97
2019-03-11T04:10:25.084Z,163958.31
2019-03-11T04:12:53.356Z,163950.34
2019-03-11T04:15:21.626Z,163958.31
2019-03-11T04:17:49.721Z,163946.38
2019-03-11T04:20:18.503Z,163954.33
2019-03-11T04:22:46.759Z,163959.66
2019-03-11T04:25:14.983Z,163945.03
2019-03-11T04:27:43.333Z,163947.67
2019-03-11T04:30:17.999Z,163961.00
2019-03-11T04:32:46.116Z,163954.33
2019-03-11T04:35:14.221Z,163961.00
2019-03-11T04:37:42.481Z,163955.67
2019-03-11T04:40:11.744Z,163966.27
2019-03-11T04:42:40.763Z,163943.69
2019-03-11T04:45:10.442Z,163955.67
2019-03-11T04:47:38.540Z,163976.91
2019-03-11T04:50:09.618Z,163971.59
2019-03-11T04:52:37.744Z,163964.98
2019-03-11T04:55:06.186Z,163984.92
2019-03-11T04:57:42.036Z,163979.59
2019-03-11T05:00:13.691Z,163976.91
2019-03-11T05:02:41.784Z,163971.59
2019-03-11T05:05:09.864Z,163970.30
2019-03-11T05:07:38.160Z,163976.91
2019-03-11T05:10:07.960Z,163982.23
2019-03-11T05:12:36.113Z,163974.28
2019-03-11T05:15:04.802Z,163956.97
2019-03-11T05:17:32.909Z,163974.28
2019-03-11T05:20:01.151Z,163988.89
2019-03-11T05:22:29.492Z,163974.28
2019-03-11T05:24:57.694Z,163974.28
2019-03-11T05:27:25.768Z,163966.27
2019-03-11T05:29:53.952Z,163953.00
2019-03-11T05:32:22.268Z,163956.97
2019-03-11T05:34:50.533Z,163961.00
2019-03-11T05:37:18.783Z,163945.03
2019-03-11T05:39:46.847Z,163945.03
2019-03-11T05:42:14.937Z,163971.59
2019-03-11T05:44:43.130Z,163964.98
2019-03-11T05:47:11.274Z,163962.30
2019-03-11T05:49:39.432Z,163978.25
2019-03-11T05:52:07.579Z,163966.27
2019-03-11T05:54:35.647Z,163953.00
2019-03-11T05:57:03.824Z,163963.63
2019-03-11T05:59:32.572Z,163964.98
2019-03-11T06:02:00.737Z,163966.27
2019-03-11T06:04:29.754Z,163956.97
2019-03-11T06:06:57.949Z,163961.00
2019-03-11T06:09:26.076Z,163962.30
2019-03-11T06:11:54.162Z,163961.00
2019-03-11T06:14:22.315Z,163939.72
2019-03-11T06:16:50.457Z,163955.67
2019-03-11T06:19:18.609Z,163963.63
2019-03-11T06:21:51.994Z,163971.59
2019-03-11T06:24:20.076Z,163949.02
2019-03-11T06:26:48.286Z,163976.91
2019-03-11T06:29:16.455Z,163962.30
2019-03-11T06:31:45.062Z,163958.31
2019-03-11T06:34:13.134Z,163961.00
2019-03-11T06:36:41.279Z,163970.30
2019-03-11T06:39:09.716Z,163961.00
2019-03-11T06:41:37.824Z,163976.91
2019-03-11T06:44:06.015Z,163983.58
2019-03-11T06:46:34.550Z,163982.23
2019-03-11T06:49:02.840Z,164002.17
2019-03-11T06:51:30.986Z,163979.59
2019-03-11T06:53:59.103Z,163988.89
2019-03-11T06:56:27.277Z,163982.23
2019-03-11T06:58:55.355Z,163976.91
2019-03-11T07:01:23.451Z,163962.30
2019-03-11T07:03:51.602Z,163938.38
2019-03-11T07:06:20.161Z,163978.25
2019-03-11T07:08:48.228Z,163986.22
2019-03-11T07:11:17.466Z,163979.59
2019-03-11T07:13:45.563Z,163995.52
2019-03-11T07:16:13.845Z,163966.27
2019-03-11T07:18:41.946Z,164000.83
2019-03-11T07:21:10.096Z,164022.13
2019-03-11T07:23:38.180Z,164024.75
2019-03-11T07:26:06.287Z,164030.08
2019-03-11T07:28:34.431Z,164030.08
2019-03-11T07:31:02.531Z,164044.70
2019-03-11T07:33:30.637Z,164038.03
2019-03-11T07:35:58.864Z,164044.70
2019-03-11T07:38:27.047Z,164054.00
2019-03-11T07:40:55.195Z,164061.97
2019-03-11T07:43:23.378Z,164079.28
2019-03-11T07:45:51.506Z,164075.30
2019-03-11T07:48:19.571Z,164095.25
2019-03-11T07:50:47.676Z,164089.92
2019-03-11T07:53:15.801Z,164069.97
2019-03-11T07:55:43.895Z,164093.91
2019-03-11T07:58:12.385Z,164088.58
2019-03-11T08:00:40.477Z,164123.16
2019-03-11T08:03:08.570Z,164075.30
2019-03-11T08:05:36.709Z,164100.52
2019-03-11T08:08:04.933Z,164104.55
2019-03-11T08:10:33.148Z,164125.78
2019-03-11T08:13:01.314Z,164107.19
2019-03-11T08:15:29.406Z,164109.81
2019-03-11T08:17:57.569Z,164101.86
2019-03-11T08:20:25.695Z,164153.70
2019-03-11T08:22:53.803Z,164160.37
2019-03-11T08:25:21.907Z,164160.37
2019-03-11T08:27:49.967Z,164181.67
2019-03-11T08:30:18.185Z,164178.98
2019-03-11T08:32:46.317Z,164229.53
2019-03-11T08:35:14.514Z,164186.94
2019-03-11T08:37:42.875Z,164165.70
2019-03-11T08:40:12.557Z,164151.06
2019-03-11T08:42:40.811Z,164124.45
2019-03-11T08:45:10.653Z,164069.97
2019-03-11T08:47:38.733Z,164075.30
2019-03-11T08:50:08.211Z,164022.13
2019-03-11T08:52:36.436Z,164085.89
2019-03-11T08:55:05.591Z,164123.16
2019-03-11T08:57:33.706Z,164117.83
2019-03-11T09:00:01.800Z,164096.53
2019-03-11T09:02:29.911Z,164103.20
2019-03-11T09:04:57.984Z,164103.20
2019-03-11T09:07:26.111Z,164101.86
2019-03-11T09:09:54.499Z,164068.63
2019-03-11T09:12:22.726Z,164046.05
2019-03-11T09:14:50.796Z,164083.25
2019-03-11T09:17:19.008Z,164093.91
2019-03-11T09:19:47.124Z,164060.67
2019-03-11T09:22:15.272Z,164120.47
2019-03-11T09:24:44.167Z,164157.69
2019-03-11T09:27:12.270Z,164175.00
2019-03-11T09:29:40.367Z,164123.16
2019-03-11T09:32:08.679Z,164172.31
2019-03-11T09:34:37.203Z,164277.42
2019-03-11T09:37:05.357Z,164244.12
2019-03-11T09:39:33.457Z,164264.08
2019-03-11T09:42:01.544Z,164419.75
2019-03-11T09:44:29.715Z,164476.97
2019-03-11T09:46:57.800Z,164524.88
2019-03-11T09:49:26.325Z,164500.92
2019-03-11T09:51:54.378Z,164562.14
2019-03-11T09:54:22.446Z,164607.42
2019-03-11T09:56:50.634Z,164518.20
2019-03-11T09:59:18.711Z,164459.69
2019-03-11T10:01:46.838Z,164443.70
2019-03-11T10:04:14.924Z,164438.37
2019-03-11T10:06:44.076Z,164383.81
2019-03-11T10:09:12.423Z,164506.25
2019-03-11T10:11:40.915Z,164503.56
2019-03-11T10:14:09.115Z,164516.91
2019-03-11T10:16:37.283Z,164566.12
2019-03-11T10:19:05.699Z,164540.88
2019-03-11T10:21:33.877Z,164519.55
2019-03-11T10:24:01.960Z,164540.88
2019-03-11T10:26:30.277Z,164590.08
2019-03-11T10:28:58.350Z,164594.13
2019-03-11T10:31:26.446Z,164594.13
2019-03-11T10:33:54.631Z,164631.37
2019-03-11T10:36:22.735Z,164559.50
2019-03-11T10:38:50.940Z,164631.37
2019-03-11T10:41:19.015Z,164622.06
2019-03-11T10:43:47.111Z,164729.94
2019-03-11T10:46:15.226Z,164709.97
2019-03-11T10:48:43.326Z,164707.31
2019-03-11T10:51:11.375Z,164681.95
2019-03-11T10:53:39.812Z,164697.95
2019-03-11T10:56:07.999Z,164626.06
2019-03-11T10:58:36.273Z,164562.14
2019-03-11T11:01:04.335Z,164443.70
2019-03-11T11:03:32.476Z,164431.70
2019-03-11T11:06:00.537Z,164399.78
2019-03-11T11:08:29.265Z,164381.16
2019-03-11T11:10:57.387Z,164359.86
2019-03-11T11:13:25.460Z,164366.53
2019-03-11T11:15:57.360Z,164353.23
2019-03-11T11:18:25.616Z,164370.52
2019-03-11T11:20:53.811Z,164285.38
2019-03-11T11:23:21.932Z,164232.19
2019-03-11T11:25:50.155Z,164282.69
2019-03-11T11:28:18.797Z,164321.27
2019-03-11T11:30:46.959Z,164351.89
2019-03-11T11:33:15.103Z,164375.84
2019-03-11T11:35:43.244Z,164389.12
2019-03-11T11:38:11.367Z,164383.81
2019-03-11T11:40:39.492Z,164341.23
2019-03-11T11:43:07.603Z,164349.25
2019-03-11T11:45:35.676Z,164357.22
2019-03-11T11:48:03.925Z,164373.20
2019-03-11T11:50:32.008Z,164347.91
2019-03-11T11:53:01.514Z,164318.64
2019-03-11T11:55:29.643Z,164297.33
2019-03-11T11:57:57.859Z,164208.25
2019-03-11T12:00:28.242Z,164163.00
2019-03-11T12:02:58.119Z,164051.38
2019-03-11T12:05:26.210Z,164011.48
2019-03-11T12:07:54.304Z,163942.34
2019-03-11T12:10:22.663Z,163800.20
2019-03-11T12:12:50.840Z,163788.28
2019-03-11T12:15:19.037Z,163664.72
2019-03-11T12:17:47.136Z,163676.70
2019-03-11T12:20:18.176Z,163672.72
2019-03-11T12:22:46.260Z,163687.34
2019-03-11T12:25:15.744Z,163721.83
2019-03-11T12:27:53.073Z,163801.55
2019-03-11T12:30:17.980Z,163852.00
2019-03-11T12:32:46.421Z,163855.98
2019-03-11T12:35:14.814Z,163796.23
2019-03-11T12:37:43.386Z,163678.05
2019-03-11T12:40:12.517Z,163647.48
2019-03-11T12:42:40.687Z,163729.83
2019-03-11T12:45:10.886Z,163732.47
2019-03-11T12:47:38.971Z,163735.14
2019-03-11T12:50:14.876Z,163735.14
2019-03-11T12:52:43.203Z,163761.69
2019-03-11T12:55:11.386Z,163814.81
2019-03-11T12:57:39.589Z,163852.00
2019-03-11T13:00:09.719Z,163860.02
2019-03-11T13:02:37.849Z,163945.03
2019-03-11T13:05:06.667Z,163982.23
2019-03-11T13:07:34.802Z,164016.80
2019-03-11T13:10:03.771Z,163992.88
2019-03-11T13:12:31.972Z,164022.13
2019-03-11T13:15:00.567Z,163974.28
2019-03-11T13:17:28.654Z,163953.00
2019-03-11T13:19:57.284Z,163984.92
2019-03-11T13:22:25.485Z,163966.27
2019-03-11T13:24:53.599Z,163984.92
2019-03-11T13:27:21.943Z,163995.52
2019-03-11T13:29:50.070Z,164000.83
2019-03-11T13:32:19.594Z,164019.44
2019-03-11T13:34:47.769Z,164018.14
2019-03-11T13:37:15.830Z,164011.48
2019-03-11T13:39:44.251Z,163976.91
2019-03-11T13:42:12.761Z,163963.63
2019-03-11T13:44:42.663Z,163984.92
2019-03-11T13:47:11.134Z,164000.83
2019-03-11T13:49:39.292Z,164004.81
2019-03-11T13:52:07.891Z,164048.69
2019-03-11T13:54:35.989Z,164077.94
2019-03-11T13:57:04.028Z,164108.53
2019-03-11T13:59:32.401Z,164156.39
2019-03-11T14:02:00.484Z,164188.28
2019-03-11T14:04:28.542Z,164228.20
2019-03-11T14:06:56.641Z,164341.23
2019-03-11T14:09:24.713Z,164398.44
2019-03-11T14:11:54.756Z,164418.41
2019-03-11T14:14:22.934Z,164438.37
2019-03-11T14:16:51.149Z,164409.09
2019-03-11T14:19:19.350Z,164381.16
2019-03-11T14:21:47.869Z,164410.44
2019-03-11T14:24:16.120Z,164402.42
2019-03-11T14:26:44.191Z,164423.73
2019-03-11T14:29:12.316Z,164442.36
2019-03-11T14:31:40.575Z,164450.33
2019-03-11T14:34:08.923Z,164442.36
2019-03-11T14:36:37.143Z,164430.41
2019-03-11T14:39:05.563Z,164455.66
2019-03-11T14:41:33.652Z,164395.80
2019-03-11T14:44:01.765Z,164464.97
2019-03-11T14:46:29.861Z,164472.98
2019-03-11T14:48:58.346Z,164458.34
2019-03-11T14:51:26.430Z,164453.02
2019-03-11T14:53:54.837Z,164487.62
2019-03-11T14:56:23.288Z,164427.72
2019-03-11T14:58:51.580Z,164450.33
2019-03-11T15:01:19.834Z,164429.06
2019-03-11T15:03:48.641Z,164425.08
2019-03-11T15:06:17.027Z,164431.70
2019-03-11T15:08:45.095Z,164431.70
2019-03-11T15:11:13.241Z,164415.77
2019-03-11T15:13:42.549Z,164381.16
2019-03-11T15:16:10.763Z,164427.72
2019-03-11T15:18:39.644Z,164439.72
2019-03-11T15:21:07.815Z,164415.77
2019-03-11T15:23:35.908Z,164426.38
2019-03-11T15:26:05.659Z,164498.23
2019-03-11T15:28:35.029Z,164495.59
2019-03-11T15:31:10.419Z,164535.53
2019-03-11T15:33:33.143Z,164466.31
2019-03-11T15:36:01.478Z,164527.52
2019-03-11T15:38:29.651Z,164519.55
2019-03-11T15:40:57.713Z,164511.58
2019-03-11T15:43:25.822Z,164516.91
2019-03-11T15:45:54.126Z,164550.19
2019-03-11T15:48:23.055Z,164543.50
2019-03-11T15:50:53.033Z,164535.53
2019-03-11T15:53:21.155Z,164556.81
2019-03-11T15:55:49.270Z,164602.09
2019-03-11T15:58:17.330Z,164543.50
2019-03-11T16:00:46.049Z,164540.88
2019-03-11T16:03:14.213Z,164600.75
2019-03-11T16:05:42.631Z,164546.19
2019-03-11T16:08:10.789Z,164562.14
2019-03-11T16:10:38.891Z,164540.88
2019-03-11T16:13:07.021Z,164552.81
2019-03-11T16:15:35.708Z,164572.80
2019-03-11T16:18:03.912Z,164578.13
2019-03-11T16:20:32.206Z,164599.41
2019-03-11T16:23:00.325Z,164670.00
2019-03-11T16:25:28.410Z,164631.37
2019-03-11T16:27:56.588Z,164600.75
2019-03-11T16:30:24.777Z,164586.09
2019-03-11T16:32:59.600Z,164543.50
2019-03-11T16:35:24.063Z,164556.81
2019-03-11T16:37:52.661Z,164539.53
2019-03-11T16:40:20.948Z,164540.88
2019-03-11T16:42:49.052Z,164511.58
2019-03-11T16:45:17.785Z,164523.53
2019-03-11T16:47:47.199Z,164506.25
2019-03-11T16:50:15.865Z,164483.64
2019-03-11T16:52:44.247Z,164495.59
2019-03-11T16:55:13.932Z,164447.69
2019-03-11T16:57:42.072Z,164463.67
2019-03-11T17:00:19.008Z,164441.02
2019-03-11T17:02:47.279Z,164443.70
2019-03-11T17:05:15.379Z,164393.11
2019-03-11T17:07:45.779Z,164399.78
2019-03-11T17:10:14.399Z,164367.87
2019-03-11T17:12:42.533Z,164386.50
2019-03-11T17:15:11.198Z,164357.22
2019-03-11T17:17:39.316Z,164314.66
2019-03-11T17:20:09.427Z,164288.03
2019-03-11T17:22:37.558Z,164240.14
2019-03-11T17:25:07.880Z,164256.13
2019-03-11T17:27:36.067Z,164242.83
2019-03-11T17:30:06.213Z,164246.81
2019-03-11T17:32:34.479Z,164217.55
2019-03-11T17:35:02.599Z,164248.16
2019-03-11T17:37:30.695Z,164250.80
2019-03-11T17:39:58.848Z,164249.45
2019-03-11T17:42:26.980Z,164264.08
2019-03-11T17:44:55.077Z,164245.47
2019-03-11T17:47:23.259Z,164248.16
2019-03-11T17:49:51.351Z,164224.22
2019-03-11T17:52:19.959Z,164213.56
2019-03-11T17:54:48.364Z,164218.89
2019-03-11T17:57:16.509Z,164200.28
2019-03-11T17:59:45.765Z,164188.28
2019-03-11T18:02:13.888Z,164210.88
2019-03-11T18:04:42.027Z,164172.31
2019-03-11T18:07:10.577Z,164176.34
2019-03-11T18:09:38.985Z,164182.97
2019-03-11T18:12:07.203Z,164164.34
2019-03-11T18:14:35.263Z,164156.39
2019-03-11T18:17:03.436Z,164155.05
2019-03-11T18:19:31.515Z,164132.45
2019-03-11T18:21:59.728Z,164121.81
2019-03-11T18:24:27.848Z,164141.77
2019-03-11T18:26:56.036Z,164152.41
2019-03-11T18:29:24.230Z,164172.31
2019-03-11T18:32:01.547Z,164163.00
2019-03-11T18:34:22.449Z,164176.34
2019-03-11T18:36:51.160Z,164159.03
2019-03-11T18:39:19.541Z,164156.39
2019-03-11T18:41:47.811Z,164164.34
2019-03-11T18:44:15.919Z,164182.97
2019-03-11T18:46:44.240Z,164167.03
2019-03-11T18:49:12.433Z,164163.00
2019-03-11T18:51:41.136Z,164192.27
2019-03-11T18:54:09.385Z,164188.28
2019-03-11T18:56:37.941Z,164181.67
2019-03-11T18:59:06.210Z,164204.27
2019-03-11T19:01:34.324Z,164213.56
2019-03-11T19:04:02.415Z,164222.87
2019-03-11T19:06:31.588Z,164218.89
2019-03-11T19:08:59.823Z,164229.53
2019-03-11T19:11:28.065Z,164222.87
2019-03-11T19:13:56.578Z,164226.84
2019-03-11T19:16:24.707Z,164248.16
2019-03-11T19:18:52.876Z,164249.45
2019-03-11T19:21:21.039Z,164281.41
2019-03-11T19:23:49.231Z,164280.06
2019-03-11T19:26:17.297Z,164292.00
2019-03-11T19:28:45.537Z,164273.39
2019-03-11T19:31:13.796Z,164278.72
2019-03-11T19:33:42.105Z,164285.38
2019-03-11T19:36:10.316Z,164266.77
2019-03-11T19:38:38.522Z,164280.06
2019-03-11T19:41:06.727Z,164269.41
2019-03-11T19:43:34.862Z,164262.78
2019-03-11T19:46:03.117Z,164264.08
2019-03-11T19:48:31.451Z,164224.22
2019-03-11T19:50:59.586Z,164230.83
2019-03-11T19:53:27.691Z,164229.53
2019-03-11T19:55:55.936Z,164232.19
2019-03-11T19:58:24.035Z,164230.83
2019-03-11T20:00:53.428Z,164193.61
2019-03-11T20:03:26.869Z,164173.66
2019-03-11T20:05:53.861Z,164173.66
2019-03-11T20:08:23.817Z,164165.70
2019-03-11T20:10:52.013Z,164175.00
2019-03-11T20:13:20.161Z,164133.75
2019-03-11T20:15:48.301Z,164120.47
2019-03-11T20:18:16.574Z,164128.47
2019-03-11T20:20:44.874Z,164104.55
2019-03-11T20:23:13.168Z,164083.25
2019-03-11T20:25:41.355Z,164055.34
2019-03-11T20:28:09.996Z,164066.00
2019-03-11T20:30:38.231Z,164018.14
2019-03-11T20:33:07.653Z,164020.78
2019-03-11T20:35:35.850Z,164008.84
2019-03-11T20:38:04.129Z,163976.91
2019-03-11T20:40:32.215Z,163987.56
2019-03-11T20:43:00.877Z,163987.56
2019-03-11T20:45:29.063Z,163954.33
2019-03-11T20:47:57.303Z,163963.63
2019-03-11T20:50:25.630Z,163942.34
2019-03-11T20:52:53.769Z,163943.69
2019-03-11T20:55:21.836Z,163943.69
2019-03-11T20:57:50.063Z,163942.34
2019-03-11T21:00:19.949Z,163987.56
2019-03-11T21:02:48.131Z,163942.34
2019-03-11T21:05:19.428Z,163950.34
2019-03-11T21:07:47.638Z,163945.03
2019-03-11T21:10:16.108Z,163942.34
2019-03-11T21:12:45.650Z,163967.61
2019-03-11T21:15:14.306Z,163938.38
2019-03-11T21:17:42.489Z,163910.47
2019-03-11T21:20:13.926Z,163921.13
2019-03-11T21:22:43.318Z,163879.89
2019-03-11T21:25:14.128Z,163833.41
2019-03-11T21:27:42.899Z,163828.09
2019-03-11T21:30:15.345Z,163886.56
2019-03-11T21:32:44.329Z,163875.92
2019-03-11T21:35:13.471Z,163832.06
2019-03-11T21:37:41.718Z,163830.78
2019-03-11T21:40:13.184Z,163838.73
2019-03-11T21:42:41.584Z,163846.69
2019-03-11T21:45:11.185Z,163840.08
2019-03-11T21:47:39.470Z,163826.81
2019-03-11T21:50:12.678Z,163837.39
2019-03-11T21:52:40.861Z,163844.05
2019-03-11T21:55:09.083Z,163830.78
2019-03-11T21:57:37.574Z,163816.16
2019-03-11T22:00:09.383Z,163825.45
2019-03-11T22:02:37.552Z,163834.75
2019-03-11T22:05:05.877Z,163808.16
2019-03-11T22:07:34.333Z,163772.31
2019-03-11T22:10:02.491Z,163777.64
2019-03-11T22:12:30.580Z,163818.80
2019-03-11T22:14:58.734Z,163810.84
2019-03-11T22:17:26.794Z,163789.56
2019-03-11T22:19:54.887Z,163796.23
2019-03-11T22:22:23.594Z,163789.56
2019-03-11T22:24:51.698Z,163836.09
2019-03-11T22:27:19.822Z,163833.41
2019-03-11T22:29:47.961Z,163871.94
2019-03-11T22:32:16.213Z,163842.72
2019-03-11T22:34:44.347Z,163867.97
2019-03-11T22:37:12.407Z,163875.92
2019-03-11T22:39:40.481Z,163883.92
2019-03-11T22:42:08.802Z,163870.59
2019-03-11T22:44:36.985Z,163895.86
2019-03-11T22:47:05.147Z,163850.72
2019-03-11T22:49:33.295Z,163869.31
2019-03-11T22:52:01.409Z,163874.63
2019-03-11T22:54:29.467Z,163874.63
2019-03-11T22:56:57.668Z,163889.25
2019-03-11T22:59:25.737Z,163907.84
2019-03-11T23:01:54.177Z,163918.44
2019-03-11T23:04:22.657Z,163942.34
2019-03-11T23:06:52.088Z,163961.00
2019-03-11T23:09:20.643Z,163971.59
2019-03-11T23:11:48.709Z,163958.31
2019-03-11T23:14:16.842Z,163951.64
2019-03-11T23:16:45.346Z,163915.80
2019-03-11T23:19:13.429Z,163938.38
2019-03-11T23:21:42.534Z,163946.38
2019-03-11T23:24:10.612Z,163976.91
2019-03-11T23:26:38.712Z,163987.56
2019-03-11T23:29:06.840Z,163971.59
2019-03-11T23:31:34.918Z,163966.27
2019-03-11T23:34:03.085Z,163954.33
2019-03-11T23:36:31.502Z,163986.22
2019-03-11T23:38:59.689Z,163982.23
2019-03-11T23:41:29.180Z,163987.56
2019-03-11T23:43:57.507Z,163984.92
2019-03-11T23:46:25.621Z,164004.81
2019-03-11T23:48:53.793Z,164008.84
2019-03-11T23:51:22.341Z,164014.11
2019-03-11T23:53:50.444Z,164019.44
2019-03-11T23:56:18.858Z,164060.67
2019-03-11T23:58:46.997Z,164054.00
